Time;durP1;ratioP1;P1;durP2;ratioP2;P2;SDS_P1;SDS_P2;PMS_P1;PMS_P2;Temp;Humidity;BMP_temperature;BMP_pressure;BME280_temperature;BME280_humidity;BME280_pressure;Samples;Min_cycle;Max_cycle;Signal;HPM_P1;HPM_P2
2021/08/04 00:03:56;;;;;;;30.20;19.25;;;14.50;99.90;;;;;;6731592;88;20218;-76
2021/08/04 00:13:56;;;;;;;33.35;19.23;;;14.30;99.90;;;;;;6731628;88;20622;-76
2021/08/04 00:23:57;;;;;;;34.25;20.65;;;14.20;99.90;;;;;;6730992;88;20201;-76
2021/08/04 00:33:57;;;;;;;35.17;20.30;;;14.10;99.90;;;;;;6731032;88;20204;-76
2021/08/04 00:43:58;;;;;;;34.25;20.88;;;14.00;99.90;;;;;;6731089;88;20204;-76
2021/08/04 00:54:01;;;;;;;29.90;19.77;;;14.10;99.90;;;;;;6731385;88;20196;-76
2021/08/04 01:04:07;;;;;;;28.12;19.42;;;14.20;99.90;;;;;;6731678;88;20235;-76
2021/08/04 01:14:13;;;;;;;31.27;18.90;;;14.20;99.90;;;;;;6733129;88;20266;-76
2021/08/04 01:24:31;;;;;;;36.70;20.53;;;14.10;99.90;;;;;;6731360;88;20238;-76
2021/08/04 01:34:35;;;;;;;34.17;21.12;;;14.00;99.90;;;;;;6730894;88;20740;-76
2021/08/04 01:44:38;;;;;;;37.53;22.65;;;13.90;99.90;;;;;;6731062;88;20194;-76
2021/08/04 01:54:38;;;;;;;41.33;23.65;;;13.90;99.90;;;;;;6729997;88;20234;-76
2021/08/04 02:04:39;;;;;;;38.25;22.87;;;13.70;99.90;;;;;;6730337;88;20708;-76
2021/08/04 02:15:05;;;;;;;37.08;22.62;;;13.80;99.90;;;;;;6730460;88;20274;-76
2021/08/04 02:25:13;;;;;;;42.05;23.23;;;13.90;99.90;;;;;;6725381;88;20195;-76
2021/08/04 02:35:14;;;;;;;38.42;22.83;;;13.80;99.90;;;;;;6730718;88;20578;-77
2021/08/04 02:45:15;;;;;;;34.20;21.27;;;13.80;99.90;;;;;;6737461;88;20212;-78
2021/08/04 02:55:16;;;;;;;34.58;21.58;;;13.50;99.90;;;;;;6737041;88;20180;-77
2021/08/04 03:05:17;;;;;;;39.38;21.37;;;13.60;99.90;;;;;;6736186;88;20282;-77
2021/08/04 03:15:17;;;;;;;35.10;22.37;;;13.30;99.90;;;;;;6734913;88;20191;-76
2021/08/04 03:25:19;;;;;;;37.28;21.62;;;13.00;99.90;;;;;;6734797;88;20543;-77
2021/08/04 03:35:19;;;;;;;35.42;21.17;;;13.00;99.90;;;;;;6735497;88;20368;-78
2021/08/04 03:45:20;;;;;;;37.38;21.60;;;12.90;99.90;;;;;;6733865;88;20664;-76
2021/08/04 03:55:21;;;;;;;36.83;21.92;;;12.80;99.90;;;;;;6737276;88;20202;-75
2021/08/04 04:05:22;;;;;;;39.88;23.05;;;12.80;99.90;;;;;;6739321;88;20295;-77
2021/08/04 04:15:23;;;;;;;43.17;24.27;;;12.70;99.90;;;;;;6738110;88;20636;-76
2021/08/04 04:25:23;;;;;;;46.25;24.17;;;12.60;99.90;;;;;;6747837;88;20235;-76
2021/08/04 04:35:39;;;;;;;41.43;23.53;;;12.60;99.90;;;;;;6760942;88;20737;-75
2021/08/04 04:45:39;;;;;;;39.80;22.87;;;12.80;99.90;;;;;;6744645;88;20535;-76
2021/08/04 04:55:40;;;;;;;35.70;21.80;;;12.90;99.90;;;;;;6742401;88;20212;-77
2021/08/04 05:05:40;;;;;;;37.15;21.87;;;13.00;99.90;;;;;;6738202;88;21174;-75
2021/08/04 05:15:41;;;;;;;35.40;21.70;;;13.00;99.90;;;;;;6738221;88;20214;-76
2021/08/04 05:25:41;;;;;;;32.75;19.90;;;13.20;99.90;;;;;;6737885;88;20212;-77
2021/08/04 05:35:42;;;;;;;36.47;20.42;;;13.30;99.90;;;;;;6734300;88;20307;-76
2021/08/04 05:45:43;;;;;;;35.92;21.27;;;13.60;99.90;;;;;;6734932;88;20221;-76
2021/08/04 05:55:43;;;;;;;35.00;20.73;;;13.80;99.90;;;;;;6739193;88;20191;-78
2021/08/04 06:05:44;;;;;;;33.80;19.65;;;14.10;99.90;;;;;;6737187;88;20235;-77
2021/08/04 06:15:45;;;;;;;33.38;20.42;;;14.50;99.90;;;;;;6735836;88;20196;-77
2021/08/04 06:25:46;;;;;;;27.27;18.62;;;15.00;99.90;;;;;;6736167;88;20211;-78
2021/08/04 06:35:46;;;;;;;31.60;18.85;;;15.20;99.90;;;;;;6736320;88;20180;-78
2021/08/04 06:45:47;;;;;;;29.20;18.37;;;15.40;99.90;;;;;;6736042;88;20255;-76
2021/08/04 06:55:48;;;;;;;29.13;18.10;;;15.70;99.90;;;;;;6735587;88;20203;-75
2021/08/04 07:05:50;;;;;;;30.30;18.62;;;15.70;99.90;;;;;;6733927;88;20229;-77
2021/08/04 07:15:51;;;;;;;25.55;16.27;;;16.90;99.90;;;;;;6733657;88;20290;-77
2021/08/04 07:25:51;;;;;;;23.15;16.67;;;17.80;99.90;;;;;;6734201;88;20831;-75
2021/08/04 07:35:52;;;;;;;26.62;17.02;;;18.30;99.90;;;;;;6736150;88;20197;-78
2021/08/04 07:45:52;;;;;;;27.73;16.90;;;18.40;99.90;;;;;;6739485;88;20207;-76
2021/08/04 07:55:53;;;;;;;26.52;18.00;;;18.50;99.90;;;;;;6734526;88;20927;-75
2021/08/04 08:05:53;;;;;;;27.80;17.53;;;19.20;99.90;;;;;;6731528;88;20699;-76
2021/08/04 08:15:54;;;;;;;21.05;14.52;;;19.60;99.90;;;;;;6731294;88;20571;-75
2021/08/04 08:25:54;;;;;;;18.98;13.45;;;21.30;99.90;;;;;;6726908;88;20209;-76
2021/08/04 08:35:55;;;;;;;22.98;15.13;;;21.70;99.90;;;;;;6731046;88;20218;-75
2021/08/04 08:45:56;;;;;;;21.05;14.07;;;22.50;99.90;;;;;;6731430;88;20204;-76
2021/08/04 08:55:57;;;;;;;23.85;16.62;;;23.20;99.90;;;;;;6731966;88;20217;-76
2021/08/04 09:05:57;;;;;;;19.97;14.33;;;23.10;99.90;;;;;;6731620;88;20251;-76
2021/08/04 09:16:07;;;;;;;19.97;14.00;;;23.30;99.90;;;;;;6731057;88;20663;-76
2021/08/04 09:26:13;;;;;;;18.05;12.90;;;24.90;99.90;;;;;;6731087;88;20884;-75
2021/08/04 09:36:26;;;;;;;20.23;12.50;;;25.30;99.90;;;;;;6730932;88;20257;-76
2021/08/04 09:46:27;;;;;;;13.48;9.88;;;25.50;99.90;;;;;;6731167;88;20197;-76
2021/08/04 09:56:27;;;;;;;14.57;10.88;;;25.50;99.90;;;;;;6731021;88;20180;-77
2021/08/04 10:06:28;;;;;;;14.18;10.50;;;26.10;99.90;;;;;;6741635;88;20211;-75
2021/08/04 10:16:34;;;;;;;14.77;10.35;;;25.40;99.90;;;;;;6735131;88;20180;-75
2021/08/04 10:26:36;;;;;;;11.98;9.02;;;26.60;99.90;;;;;;6746845;88;20205;-75
2021/08/04 10:36:39;;;;;;;7.80;5.90;;;26.40;99.90;;;;;;6735246;88;20196;-78
2021/08/04 10:46:42;;;;;;;10.48;6.28;;;26.10;99.90;;;;;;6730977;88;20808;-75
2021/08/04 10:56:42;;;;;;;8.07;6.10;;;25.90;99.90;;;;;;6726991;88;20233;-75
2021/08/04 11:07:08;;;;;;;10.63;6.47;;;26.70;99.60;;;;;;6730652;88;20255;-75
2021/08/04 11:17:11;;;;;;;7.85;6.57;;;26.60;99.90;;;;;;6730006;88;20212;-75
2021/08/04 11:27:12;;;;;;;7.55;5.10;;;27.80;99.60;;;;;;6729904;88;20269;-76
2021/08/04 11:37:13;;;;;;;6.45;4.87;;;28.10;97.00;;;;;;6730033;88;20449;-75
2021/08/04 11:47:14;;;;;;;5.65;4.05;;;27.50;97.30;;;;;;6729479;88;20201;-76
2021/08/04 11:57:30;;;;;;;9.05;4.35;;;26.80;98.70;;;;;;6729929;88;20185;-76
2021/08/04 12:07:33;;;;;;;6.68;2.90;;;26.80;97.30;;;;;;6726326;88;20212;-76
2021/08/04 12:17:35;;;;;;;;;;;26.90;96.40;;;;;;6730691;88;20794;-76
2021/08/04 12:27:39;;;;;;;6.05;4.45;;;28.80;95.80;;;;;;6732157;88;20095;-76
2021/08/04 12:37:40;;;;;;;6.30;3.90;;;29.70;91.90;;;;;;6731991;88;20200;-76
2021/08/04 12:47:54;;;;;;;4.90;3.20;;;29.10;91.90;;;;;;6731712;88;20214;-75
2021/08/04 12:58:03;;;;;;;4.30;3.25;;;29.10;91.60;;;;;;6732129;88;20292;-76
2021/08/04 13:08:03;;;;;;;5.32;3.78;;;28.40;91.50;;;;;;6731517;88;20241;-77
2021/08/04 13:18:04;;;;;;;6.20;3.87;;;26.60;92.30;;;;;;6731167;88;20169;-76
2021/08/04 13:28:12;;;;;;;6.70;3.92;;;27.00;92.30;;;;;;6731939;88;20314;-74
2021/08/04 13:38:13;;;;;;;5.28;3.65;;;26.10;94.40;;;;;;6732176;88;20184;-75
2021/08/04 13:48:14;;;;;;;4.65;3.80;;;25.40;95.90;;;;;;6731966;88;20220;-77
2021/08/04 13:58:14;;;;;;;6.65;3.70;;;25.70;96.30;;;;;;6730942;88;20200;-77
2021/08/04 14:08:15;;;;;;;6.35;4.05;;;25.10;97.30;;;;;;6730714;88;20339;-75
2021/08/04 14:18:16;;;;;;;4.80;3.87;;;24.00;99.30;;;;;;6730785;88;20971;-76
2021/08/04 14:28:16;;;;;;;5.72;4.45;;;23.50;99.60;;;;;;6730498;88;20218;-75
2021/08/04 14:38:17;;;;;;;5.45;4.00;;;23.60;99.70;;;;;;6729976;88;20217;-75
2021/08/04 14:48:18;;;;;;;5.07;4.00;;;23.60;99.80;;;;;;6740609;88;20230;-77
2021/08/04 14:58:18;;;;;;;6.90;4.03;;;23.30;99.90;;;;;;6740474;88;20314;-77
2021/08/04 15:08:19;;;;;;;6.22;4.18;;;23.20;99.90;;;;;;6740083;88;20968;-77
2021/08/04 15:18:20;;;;;;;5.28;3.90;;;23.50;99.90;;;;;;6741206;88;20210;-76
2021/08/04 15:28:20;;;;;;;7.07;4.30;;;23.20;99.90;;;;;;6739455;88;20204;-76
2021/08/04 15:38:21;;;;;;;9.07;4.35;;;23.40;99.90;;;;;;6739872;88;20526;-76
2021/08/04 15:48:21;;;;;;;4.97;4.30;;;23.00;99.90;;;;;;6752806;88;20256;-74
2021/08/04 15:58:22;;;;;;;7.62;4.10;;;23.00;99.90;;;;;;6746565;88;20318;-76
2021/08/04 16:08:22;;;;;;;7.32;3.95;;;23.40;99.90;;;;;;6761467;88;20189;-74
2021/08/04 16:18:23;;;;;;;4.37;3.65;;;24.10;99.90;;;;;;6748056;88;20298;-77
2021/08/04 16:28:24;;;;;;;5.15;3.90;;;24.50;99.20;;;;;;6741061;88;20789;-74
2021/08/04 16:38:24;;;;;;;5.00;3.75;;;24.70;97.80;;;;;;6744470;88;20614;-77
2021/08/04 16:48:26;;;;;;;5.37;3.92;;;24.20;98.40;;;;;;6744702;88;20192;-78
2021/08/04 16:58:27;;;;;;;4.53;4.05;;;23.30;99.90;;;;;;6744991;88;20259;-77
2021/08/04 17:08:28;;;;;;;9.57;4.70;;;23.00;99.50;;;;;;6744248;88;20185;-77
2021/08/04 17:18:28;;;;;;;7.78;4.50;;;22.50;99.90;;;;;;6744589;88;20195;-76
2021/08/04 17:28:29;;;;;;;7.13;4.93;;;22.40;99.90;;;;;;6740812;88;20365;-77
2021/08/04 17:38:29;;;;;;;7.82;5.32;;;22.00;99.90;;;;;;6744029;88;20300;-76
2021/08/04 17:48:30;;;;;;;8.73;5.00;;;21.70;99.90;;;;;;6740323;88;20295;-77
2021/08/04 17:58:30;;;;;;;8.70;6.12;;;21.50;99.90;;;;;;6739996;88;20208;-77
2021/08/04 18:08:31;;;;;;;7.85;6.55;;;21.00;99.90;;;;;;6744350;88;20209;-77
2021/08/04 18:18:32;;;;;;;10.73;6.80;;;20.60;99.90;;;;;;6744672;88;20196;-76
2021/08/04 18:28:32;;;;;;;9.32;6.25;;;20.50;99.90;;;;;;6739698;88;20554;-76
2021/08/04 18:38:33;;;;;;;9.75;6.60;;;20.30;99.90;;;;;;6743677;88;20200;-77
2021/08/04 18:48:33;;;;;;;7.70;5.63;;;20.10;99.90;;;;;;6743001;88;20196;-76
2021/08/04 18:58:34;;;;;;;7.93;4.60;;;20.30;99.90;;;;;;6740846;88;20243;-77
2021/08/04 19:08:36;;;;;;;4.95;3.95;;;20.20;99.90;;;;;;6743513;88;20215;-77
2021/08/04 19:18:37;;;;;;;4.93;3.75;;;20.00;99.90;;;;;;6743336;88;20286;-77
2021/08/04 19:28:37;;;;;;;4.97;3.72;;;19.70;99.90;;;;;;6744739;88;20709;-76
2021/08/04 19:38:38;;;;;;;5.87;3.97;;;19.40;99.90;;;;;;6745899;88;20346;-76
2021/08/04 19:48:38;;;;;;;5.28;4.47;;;19.30;99.90;;;;;;6742571;88;20601;-77
2021/08/04 19:58:41;;;;;;;10.05;4.72;;;19.30;99.90;;;;;;6742378;88;20192;-77
2021/08/04 20:08:42;;;;;;;7.05;4.90;;;19.20;99.90;;;;;;6745803;88;20211;-74
2021/08/04 20:18:43;;;;;;;7.05;4.78;;;18.80;99.90;;;;;;6749653;88;20466;-76
2021/08/04 20:28:43;;;;;;;6.20;4.80;;;18.60;99.90;;;;;;6747797;88;20207;-77
2021/08/04 20:48:47;;;;;;;6.18;4.95;;;18.20;99.90;;;;;;6770310;88;20267;-84
2021/08/04 20:58:48;;;;;;;7.40;4.90;;;18.00;99.90;;;;;;6769082;88;20301;-84
2021/08/04 21:08:49;;;;;;;9.03;6.10;;;17.70;99.90;;;;;;6769274;88;20703;-85
2021/08/04 21:18:50;;;;;;;9.80;6.85;;;17.50;99.90;;;;;;6769817;88;20271;-85
2021/08/04 21:28:51;;;;;;;12.07;9.75;;;17.60;99.90;;;;;;6769794;88;20172;-83
2021/08/04 21:38:54;;;;;;;12.18;8.60;;;17.50;99.90;;;;;;6765507;88;20753;-85
2021/08/04 21:48:55;;;;;;;10.70;8.68;;;17.50;99.90;;;;;;6769007;88;20728;-83
2021/08/04 21:58:56;;;;;;;11.50;9.20;;;17.60;99.90;;;;;;6769233;88;20219;-84
2021/08/04 22:08:57;;;;;;;12.75;9.23;;;17.70;99.90;;;;;;6732560;88;20303;-85
2021/08/04 22:18:57;;;;;;;11.80;9.02;;;17.50;99.90;;;;;;6731110;88;20388;-83
2021/08/04 22:28:58;;;;;;;9.90;8.70;;;17.40;99.90;;;;;;6732184;88;20248;-85
2021/08/04 22:38:59;;;;;;;11.07;8.98;;;17.30;99.90;;;;;;6732052;88;20181;-84
2021/08/04 22:48:59;;;;;;;14.00;10.27;;;17.60;99.90;;;;;;6760768;88;20289;-84
2021/08/04 22:59:00;;;;;;;14.27;10.57;;;17.40;99.90;;;;;;6766084;88;20157;-85
2021/08/04 23:09:01;;;;;;;13.40;10.90;;;17.40;99.90;;;;;;6765676;88;20232;-81
2021/08/04 23:19:01;;;;;;;14.77;10.93;;;17.50;99.90;;;;;;6761613;88;20150;-82
2021/08/04 23:29:02;;;;;;;11.57;9.98;;;17.30;99.90;;;;;;6766188;88;20167;-81
2021/08/04 23:39:02;;;;;;;13.38;11.52;;;17.30;99.90;;;;;;6766479;88;20193;-81
2021/08/04 23:49:03;;;;;;;15.95;12.45;;;17.10;99.90;;;;;;6767053;88;20442;-82
2021/08/04 23:59:03;;;;;;;11.98;10.55;;;17.20;99.90;;;;;;6762146;88;20160;-81
